St Georges Chan, Ireland
Current Conditions -  °F | °C
As of 8:30 PM on Thursday 23 Oct 2014 (Local Time) from EIWF Reporting Station
Broken Clouds Broken Clouds  
Wind Chill: 55°   Ceiling: 2500
Heat Index: 55°   Visibility: 6mi
Dew Point: 55°   Wind: 15mph
Humidity: 100%   Direction: 250°WSW
Pressure: 29.88"   Gusts: NA
Location:  52°N, 5.83°W
Report Text: EIWF 231930Z 25013KT 200V280 9999 SCT008 BKN025 13/13 Q1012
Loading
Personal Weather Stations






























Interactive Weather Map
Tropical Storm Tracking
New forecast layout! Learn more

10-Day Weather Forecast

Advertisements
Track Severe Weather on mobile